createdAt,value
2019-02-11T00:04:51.033Z,100.00
2019-02-11T00:10:09.703Z,100.00
2019-02-11T00:15:28.392Z,100.00
2019-02-11T00:20:47.046Z,100.00
2019-02-11T00:26:05.628Z,100.00
2019-02-11T00:31:24.264Z,100.00
2019-02-11T00:36:42.943Z,100.00
2019-02-11T00:42:02.084Z,100.00
2019-02-11T00:47:20.574Z,100.00
2019-02-11T00:52:39.231Z,100.00
2019-02-11T00:57:57.858Z,100.00
2019-02-11T01:03:16.421Z,100.00
2019-02-11T01:08:35.226Z,100.00
2019-02-11T01:13:53.955Z,100.00
2019-02-11T01:19:12.609Z,100.00
2019-02-11T01:24:31.344Z,100.00
2019-02-11T01:29:50.032Z,100.00
2019-02-11T01:35:08.992Z,100.00
2019-02-11T01:40:27.757Z,100.00
2019-02-11T01:45:46.671Z,100.00
2019-02-11T01:51:06.846Z,100.00
2019-02-11T01:56:25.468Z,100.00
2019-02-11T02:01:44.304Z,100.00
2019-02-11T02:07:02.965Z,100.00
2019-02-11T02:12:21.731Z,100.00
2019-02-11T02:17:40.432Z,100.00
2019-02-11T02:22:59.180Z,100.00
2019-02-11T02:28:17.960Z,100.00
2019-02-11T02:33:36.641Z,100.00
2019-02-11T02:38:55.199Z,100.00
2019-02-11T02:44:13.964Z,100.00
2019-02-11T02:49:32.557Z,100.00
2019-02-11T02:54:51.279Z,100.00
2019-02-11T03:00:11.431Z,100.00
2019-02-11T03:05:30.067Z,100.00
2019-02-11T03:10:54.800Z,100.00
2019-02-11T03:16:09.050Z,100.00
2019-02-11T03:21:27.623Z,100.00
2019-02-11T03:26:46.208Z,100.00
2019-02-11T03:32:05.095Z,100.00
2019-02-11T03:37:23.750Z,100.00
2019-02-11T03:42:42.377Z,100.00
2019-02-11T03:48:01.018Z,100.00
2019-02-11T03:53:19.726Z,100.00
2019-02-11T03:58:38.388Z,99.97
2019-02-11T04:03:56.973Z,100.00
2019-02-11T04:09:15.542Z,100.00
2019-02-11T04:14:34.256Z,99.83
2019-02-11T04:19:52.916Z,99.23
2019-02-11T04:25:11.678Z,99.18
2019-02-11T04:30:30.302Z,99.27
2019-02-11T04:35:49.024Z,99.09
2019-02-11T04:41:07.748Z,99.04
2019-02-11T04:46:26.455Z,99.34
2019-02-11T04:51:45.222Z,99.15
2019-02-11T04:57:04.031Z,99.33
2019-02-11T05:02:30.587Z,99.54
2019-02-11T05:07:49.170Z,99.44
2019-02-11T05:13:08.070Z,99.54
2019-02-11T05:18:26.994Z,98.98
2019-02-11T05:23:45.655Z,98.48
2019-02-11T05:29:04.438Z,97.92
2019-02-11T05:34:23.100Z,97.97
2019-02-11T05:39:41.842Z,98.07
2019-02-11T05:45:00.361Z,98.23
2019-02-11T05:50:19.007Z,98.05
2019-02-11T05:55:37.584Z,97.75
2019-02-11T06:00:56.309Z,98.08
2019-02-11T06:06:15.301Z,98.20
2019-02-11T06:11:33.950Z,98.88
2019-02-11T06:16:52.731Z,99.37
2019-02-11T06:22:11.502Z,99.72
2019-02-11T06:27:30.190Z,100.00
2019-02-11T06:32:57.553Z,100.00
2019-02-11T06:38:47.371Z,99.81
2019-02-11T06:49:44.779Z,98.98
2019-02-11T06:55:03.820Z,98.63
2019-02-11T07:00:22.544Z,98.44
2019-02-11T07:05:41.972Z,98.33
2019-02-11T07:11:00.616Z,98.32
2019-02-11T07:16:19.238Z,98.42
2019-02-11T07:21:37.914Z,98.28
2019-02-11T07:33:02.592Z,98.09
2019-02-11T07:38:21.164Z,98.03
2019-02-11T07:43:41.409Z,98.09
2019-02-11T07:49:00.043Z,98.16
2019-02-11T07:54:18.687Z,97.86
2019-02-11T07:59:38.933Z,97.87
2019-02-11T08:10:56.556Z,96.98
2019-02-11T08:16:15.151Z,96.31
2019-02-11T08:21:33.819Z,96.25
2019-02-11T08:26:52.426Z,96.67
2019-02-11T08:32:11.056Z,96.44
2019-02-11T08:37:29.705Z,95.84
2019-02-11T08:42:48.283Z,95.75
2019-02-11T08:48:06.872Z,95.58
2019-02-11T08:53:25.538Z,95.66
2019-02-11T09:04:58.966Z,95.37
2019-02-11T09:10:17.737Z,95.13
2019-02-11T09:15:36.534Z,94.87
2019-02-11T09:20:55.182Z,94.90
2019-02-11T09:26:13.874Z,94.59
2019-02-11T09:31:32.526Z,94.16
2019-02-11T09:36:51.951Z,93.95
2019-02-11T09:42:10.909Z,94.14
2019-02-11T09:47:29.651Z,92.59
2019-02-11T09:52:48.347Z,93.06
2019-02-11T09:58:07.001Z,92.45
2019-02-11T10:03:25.676Z,93.17
2019-02-11T10:08:44.468Z,90.58
2019-02-11T10:14:03.191Z,91.41
2019-02-11T10:19:21.912Z,91.55
2019-02-11T10:24:40.587Z,91.69
2019-02-11T10:29:59.304Z,91.72
2019-02-11T10:35:20.636Z,92.20
2019-02-11T10:40:39.303Z,91.48
2019-02-11T10:45:58.053Z,90.77
2019-02-11T10:51:16.767Z,91.10
2019-02-11T10:56:37.020Z,92.95
2019-02-11T11:01:55.807Z,94.88
2019-02-11T11:07:14.427Z,94.83
2019-02-11T11:12:34.323Z,95.93
2019-02-11T11:17:53.031Z,96.96
2019-02-11T11:23:11.713Z,96.27
2019-02-11T11:28:33.680Z,97.14
2019-02-11T11:33:52.330Z,97.58
2019-02-11T11:39:15.804Z,98.51
2019-02-11T11:44:34.862Z,98.42
2019-02-11T11:49:58.287Z,97.37
2019-02-11T11:55:28.234Z,97.74
2019-02-11T12:00:46.930Z,97.83
2019-02-11T12:06:05.740Z,96.77
2019-02-11T12:11:24.676Z,96.41
2019-02-11T12:16:57.408Z,95.68
2019-02-11T12:22:12.970Z,94.77
2019-02-11T12:27:35.875Z,95.28
2019-02-11T12:32:56.098Z,92.66
2019-02-11T12:38:15.134Z,93.81
2019-02-11T12:43:33.803Z,93.36
2019-02-11T12:48:52.501Z,92.53
2019-02-11T12:54:11.181Z,89.46
2019-02-11T12:59:29.860Z,87.99
2019-02-11T13:04:48.770Z,85.23
2019-02-11T13:10:12.553Z,86.42
2019-02-11T13:15:56.708Z,86.75
2019-02-11T13:20:51.808Z,86.96
2019-02-11T13:26:10.482Z,85.87
2019-02-11T13:31:29.180Z,84.15
2019-02-11T13:36:47.677Z,86.15
2019-02-11T13:42:06.325Z,82.80
2019-02-11T13:47:26.623Z,83.60
2019-02-11T13:52:45.437Z,81.98
2019-02-11T13:58:04.823Z,83.70
2019-02-11T14:03:24.105Z,83.44
2019-02-11T14:08:42.725Z,83.16
2019-02-11T14:14:03.623Z,85.43
2019-02-11T14:19:22.527Z,85.90
2019-02-11T14:24:41.435Z,85.45
2019-02-11T14:30:00.416Z,86.47
2019-02-11T14:35:20.318Z,83.00
2019-02-11T14:40:39.680Z,79.03
2019-02-11T14:46:01.367Z,81.44
2019-02-11T14:51:19.989Z,82.62
2019-02-11T14:56:41.248Z,82.40
2019-02-11T15:02:01.557Z,82.88
2019-02-11T15:07:20.331Z,83.33
2019-02-11T15:12:41.270Z,81.60
2019-02-11T15:17:59.812Z,81.78
2019-02-11T15:23:18.710Z,82.26
2019-02-11T15:28:37.283Z,79.97
2019-02-11T15:33:56.025Z,74.86
2019-02-11T15:39:14.678Z,73.64
2019-02-11T15:45:09.388Z,73.16
2019-02-11T15:50:28.142Z,74.72
2019-02-11T15:55:49.348Z,72.79
2019-02-11T16:01:08.163Z,70.87
2019-02-11T16:06:26.939Z,73.12
2019-02-11T16:11:45.655Z,70.02
2019-02-11T16:17:04.391Z,70.02
2019-02-11T16:22:25.847Z,71.39
2019-02-11T16:27:44.585Z,72.40
2019-02-11T16:33:03.289Z,71.78
2019-02-11T16:38:22.368Z,73.23
2019-02-11T16:50:15.115Z,70.01
2019-02-11T16:55:36.725Z,70.22
2019-02-11T17:00:55.485Z,70.13
2019-02-11T17:06:18.660Z,70.94
2019-02-11T17:11:34.882Z,72.20
2019-02-11T17:16:53.455Z,70.27
2019-02-11T17:22:12.176Z,71.15
2019-02-11T17:27:55.689Z,71.38
2019-02-11T19:12:05.148Z,81.77
2019-02-11T19:17:34.524Z,81.37
2019-02-11T19:41:55.706Z,84.65
2019-02-11T19:47:12.127Z,85.58
2019-02-11T19:58:18.958Z,86.32
2019-02-11T20:03:39.641Z,86.76
2019-02-11T20:08:58.481Z,87.57
2019-02-11T20:14:19.025Z,88.25
2019-02-11T20:19:38.327Z,88.82
2019-02-11T20:24:57.260Z,88.88
2019-02-11T20:30:39.712Z,89.53
2019-02-11T20:36:04.119Z,88.79
2019-02-11T20:41:19.052Z,88.30
2019-02-11T20:46:39.584Z,88.42
2019-02-11T20:52:06.118Z,88.89
2019-02-11T20:57:25.056Z,88.61
2019-02-11T21:02:43.950Z,88.09
2019-02-11T21:08:04.159Z,87.99
2019-02-11T21:13:24.818Z,88.06
2019-02-11T21:18:43.667Z,86.88
2019-02-11T21:24:02.394Z,87.23
2019-02-11T21:29:21.090Z,85.55
2019-02-11T21:34:39.829Z,86.12
2019-02-11T21:39:58.592Z,86.38
2019-02-11T21:45:17.428Z,85.46
2019-02-11T21:50:36.241Z,85.64
2019-02-11T21:55:54.998Z,85.90
2019-02-11T22:01:16.656Z,86.01
2019-02-11T22:06:35.731Z,86.21
2019-02-11T22:11:54.456Z,87.12
2019-02-11T22:17:13.499Z,86.35
2019-02-11T22:22:32.463Z,85.92
2019-02-11T22:27:51.176Z,86.72
2019-02-11T22:33:10.008Z,87.03
2019-02-11T22:38:29.650Z,87.08
2019-02-11T22:43:50.123Z,87.20
2019-02-11T22:49:08.891Z,87.98
2019-02-11T22:54:27.847Z,88.75
2019-02-11T22:59:46.573Z,88.22
2019-02-11T23:05:06.186Z,88.08
2019-02-11T23:10:27.860Z,88.00
2019-02-11T23:15:46.598Z,87.70
2019-02-11T23:21:05.654Z,87.40
2019-02-11T23:26:24.336Z,86.96
2019-02-11T23:31:43.089Z,90.07
2019-02-11T23:37:01.754Z,91.69
2019-02-11T23:42:20.497Z,92.11
2019-02-11T23:47:39.562Z,92.36
2019-02-11T23:52:58.522Z,92.78
2019-02-11T23:58:17.325Z,93.16
